createdAt,value
2019-01-31T00:01:12.026Z,32.43
2019-01-31T00:04:15.149Z,33.23
2019-01-31T00:07:16.917Z,32.27
2019-01-31T00:10:22.056Z,33.50
2019-01-31T00:13:41.450Z,33.23
2019-01-31T00:17:00.456Z,33.43
2019-01-31T00:19:35.234Z,32.30
2019-01-31T00:22:56.121Z,32.50
2019-01-31T00:26:03.652Z,33.37
2019-01-31T00:29:07.460Z,31.77
2019-01-31T00:32:14.078Z,31.73
2019-01-31T00:35:26.615Z,33.27
2019-01-31T00:38:56.337Z,32.13
2019-01-31T00:41:49.361Z,32.13
2019-01-31T00:44:39.880Z,33.30
2019-01-31T00:47:39.586Z,33.43
2019-01-31T00:50:22.581Z,32.77
2019-01-31T00:53:25.639Z,30.90
2019-01-31T00:56:23.441Z,34.40
2019-01-31T00:59:12.356Z,33.63
2019-01-31T01:01:50.830Z,33.93
2019-01-31T01:04:58.952Z,36.30
2019-01-31T01:08:08.565Z,37.57
2019-01-31T01:10:58.918Z,35.93
2019-01-31T01:13:59.716Z,41.97
2019-01-31T01:16:41.661Z,47.00
2019-01-31T01:19:50.675Z,49.03
2019-01-31T01:22:50.398Z,44.83
2019-01-31T01:25:57.246Z,53.27
2019-01-31T01:29:08.262Z,50.43
2019-01-31T01:32:32.457Z,46.83
2019-01-31T01:35:32.245Z,50.43
2019-01-31T01:38:27.826Z,40.07
2019-01-31T01:41:30.820Z,49.17
2019-01-31T01:44:35.917Z,23.13
2019-01-31T01:47:13.985Z,50.27
2019-01-31T01:49:56.241Z,46.77
2019-01-31T01:52:49.924Z,39.43
2019-01-31T01:55:54.915Z,36.60
2019-01-31T01:59:04.111Z,45.50
2019-01-31T02:02:05.529Z,50.97
2019-01-31T02:05:02.202Z,49.17
2019-01-31T02:07:51.924Z,48.70
2019-01-31T02:11:05.420Z,32.47
2019-01-31T02:14:24.630Z,46.70
2019-01-31T02:17:05.726Z,43.60
2019-01-31T02:20:29.929Z,44.87
2019-01-31T02:23:35.228Z,50.40
2019-01-31T02:26:53.508Z,45.43
2019-01-31T02:30:03.965Z,34.07
2019-01-31T02:32:57.035Z,49.20
2019-01-31T02:35:54.770Z,50.63
2019-01-31T02:39:13.174Z,44.50
2019-01-31T02:41:59.579Z,40.63
2019-01-31T02:44:59.957Z,43.47
2019-01-31T02:48:00.705Z,42.23
2019-01-31T02:50:58.909Z,39.40
2019-01-31T02:53:45.832Z,39.63
2019-01-31T02:56:52.426Z,35.93
2019-01-31T02:59:57.126Z,40.17
2019-01-31T03:02:40.439Z,40.70
2019-01-31T03:05:53.996Z,40.77
2019-01-31T03:08:39.274Z,36.27
2019-01-31T03:11:19.991Z,32.40
2019-01-31T03:14:10.406Z,34.53
2019-01-31T03:17:20.861Z,35.70
2019-01-31T03:20:46.703Z,37.20
2019-01-31T03:23:52.761Z,40.27
2019-01-31T03:27:21.063Z,39.63
2019-01-31T03:30:26.474Z,42.80
2019-01-31T03:33:39.639Z,38.53
2019-01-31T03:36:22.541Z,39.97
2019-01-31T03:39:12.466Z,38.00
2019-01-31T03:42:12.584Z,39.57
2019-01-31T03:45:16.342Z,39.93
2019-01-31T03:48:11.425Z,40.70
2019-01-31T03:51:13.557Z,39.00
2019-01-31T03:54:34.744Z,37.00
2019-01-31T03:57:43.009Z,39.27
2019-01-31T04:00:39.000Z,39.50
2019-01-31T04:03:40.834Z,40.93
2019-01-31T04:06:25.682Z,38.00
2019-01-31T04:08:54.901Z,39.40
2019-01-31T04:11:24.109Z,46.87
2019-01-31T04:13:53.261Z,42.63
2019-01-31T04:16:22.468Z,41.20
2019-01-31T04:18:51.601Z,40.20
2019-01-31T04:21:20.730Z,42.57
2019-01-31T04:23:49.910Z,45.00
2019-01-31T04:26:19.093Z,39.63
2019-01-31T04:28:48.337Z,39.70
2019-01-31T04:31:17.721Z,41.93
2019-01-31T04:33:48.177Z,39.77
2019-01-31T04:36:17.366Z,39.47
2019-01-31T04:38:46.598Z,40.07
2019-01-31T04:41:15.724Z,39.50
2019-01-31T04:43:44.832Z,38.60
2019-01-31T04:46:13.970Z,42.03
2019-01-31T04:48:43.132Z,40.13
2019-01-31T04:51:13.292Z,41.60
2019-01-31T04:53:42.606Z,39.23
2019-01-31T04:56:11.744Z,38.50
2019-01-31T04:58:40.798Z,33.50
2019-01-31T05:01:10.074Z,39.43
2019-01-31T05:03:39.116Z,39.47
2019-01-31T05:06:08.349Z,38.27
2019-01-31T05:08:37.723Z,43.57
2019-01-31T05:11:06.851Z,36.47
2019-01-31T05:13:36.007Z,37.07
2019-01-31T05:16:05.242Z,36.40
2019-01-31T05:18:34.305Z,34.70
2019-01-31T05:21:03.829Z,38.60
2019-01-31T05:23:33.201Z,37.73
2019-01-31T05:26:02.407Z,37.47
2019-01-31T05:28:31.614Z,39.70
2019-01-31T05:31:00.793Z,37.40
2019-01-31T05:33:29.902Z,33.70
2019-01-31T05:35:59.044Z,39.03
2019-01-31T05:38:28.117Z,38.70
2019-01-31T05:40:57.218Z,37.80
2019-01-31T05:43:26.346Z,33.33
2019-01-31T05:45:55.578Z,26.30
2019-01-31T05:48:24.718Z,26.90
2019-01-31T05:50:53.776Z,27.67
2019-01-31T05:53:23.067Z,26.73
2019-01-31T05:55:52.317Z,28.67
2019-01-31T05:58:21.454Z,27.33
2019-01-31T06:00:50.681Z,26.57
2019-01-31T06:03:19.793Z,30.00
2019-01-31T06:05:48.965Z,26.87
2019-01-31T06:08:18.133Z,27.40
2019-01-31T06:10:47.238Z,29.47
2019-01-31T06:13:16.439Z,24.43
2019-01-31T06:15:45.801Z,16.77
2019-01-31T06:18:14.964Z,26.13
2019-01-31T06:20:44.169Z,25.70
2019-01-31T06:23:13.583Z,26.80
2019-01-31T06:25:42.626Z,26.13
2019-01-31T06:28:13.033Z,23.83
2019-01-31T06:30:42.368Z,22.60
2019-01-31T06:33:11.485Z,25.33
2019-01-31T06:35:40.597Z,26.23
2019-01-31T06:38:09.693Z,21.20
2019-01-31T06:40:38.790Z,25.80
2019-01-31T06:43:07.896Z,23.80
2019-01-31T06:45:37.186Z,24.97
2019-01-31T06:48:06.423Z,26.23
2019-01-31T06:50:35.661Z,30.77
2019-01-31T06:53:04.980Z,24.93
2019-01-31T06:55:34.114Z,28.10
2019-01-31T06:58:03.336Z,22.10
2019-01-31T07:00:32.565Z,23.13
2019-01-31T07:03:01.672Z,16.30
2019-01-31T07:05:30.895Z,22.90
2019-01-31T07:08:00.024Z,14.97
2019-01-31T07:10:29.242Z,22.70
2019-01-31T07:12:58.386Z,25.07
2019-01-31T07:15:27.672Z,30.50
2019-01-31T07:17:56.734Z,26.70
2019-01-31T07:20:25.956Z,30.47
2019-01-31T07:22:55.103Z,31.10
2019-01-31T07:25:25.462Z,30.00
2019-01-31T07:27:54.564Z,27.57
2019-01-31T07:30:26.391Z,29.20
2019-01-31T07:32:54.483Z,27.00
2019-01-31T07:35:23.670Z,26.00
2019-01-31T07:37:53.218Z,21.43
2019-01-31T07:40:22.509Z,28.03
2019-01-31T07:42:51.660Z,23.20
2019-01-31T07:45:31.118Z,30.93
2019-01-31T07:48:00.233Z,16.90
2019-01-31T07:50:29.432Z,18.87
2019-01-31T07:52:58.547Z,22.60
2019-01-31T07:55:27.745Z,23.47
2019-01-31T07:57:56.896Z,21.60
2019-01-31T08:00:26.152Z,24.70
2019-01-31T08:02:55.337Z,21.43
2019-01-31T08:05:24.592Z,18.33
2019-01-31T08:07:54.626Z,16.03
2019-01-31T08:10:43.233Z,21.80
2019-01-31T08:13:12.409Z,22.10
2019-01-31T08:15:41.649Z,19.53
2019-01-31T08:18:11.177Z,22.73
2019-01-31T08:20:40.766Z,22.70
2019-01-31T08:23:09.873Z,24.10
2019-01-31T08:25:39.057Z,22.70
2019-01-31T08:28:08.228Z,25.27
2019-01-31T08:30:39.502Z,23.40
2019-01-31T08:33:08.689Z,22.33
2019-01-31T08:35:37.897Z,20.97
2019-01-31T08:38:07.065Z,21.03
2019-01-31T08:40:36.125Z,20.23
2019-01-31T08:43:05.333Z,20.07
2019-01-31T08:45:34.473Z,14.73
2019-01-31T08:48:03.753Z,16.80
2019-01-31T08:50:32.933Z,17.50
2019-01-31T08:53:02.151Z,15.77
2019-01-31T08:55:31.394Z,20.93
2019-01-31T08:58:00.544Z,18.80
2019-01-31T09:00:30.375Z,18.57
2019-01-31T09:03:00.271Z,20.47
2019-01-31T09:05:29.409Z,26.17
2019-01-31T09:07:58.844Z,20.87
2019-01-31T09:10:30.270Z,19.50
2019-01-31T09:13:01.048Z,18.17
2019-01-31T09:15:30.338Z,20.03
2019-01-31T09:17:59.489Z,14.33
2019-01-31T09:20:54.213Z,14.47
2019-01-31T09:23:50.006Z,14.47
2019-01-31T09:26:35.312Z,13.90
2019-01-31T09:29:18.725Z,14.77
2019-01-31T09:32:12.665Z,16.23
2019-01-31T09:35:11.393Z,16.10
2019-01-31T09:38:34.178Z,19.63
2019-01-31T09:41:39.566Z,19.40
2019-01-31T09:44:52.182Z,14.57
2019-01-31T09:47:34.384Z,12.50
2019-01-31T09:50:44.131Z,13.70
2019-01-31T09:53:38.601Z,14.53
2019-01-31T09:56:51.997Z,16.30
2019-01-31T09:59:42.149Z,13.03
2019-01-31T10:03:01.956Z,11.97
2019-01-31T10:06:03.341Z,13.70
2019-01-31T10:09:05.467Z,15.00
2019-01-31T10:11:55.366Z,16.73
2019-01-31T10:14:55.993Z,16.87
2019-01-31T10:18:11.825Z,15.30
2019-01-31T10:21:01.137Z,16.40
2019-01-31T10:23:52.092Z,16.57
2019-01-31T10:26:37.830Z,17.47
2019-01-31T10:29:40.779Z,17.97
2019-01-31T10:32:57.094Z,18.57
2019-01-31T10:35:59.054Z,18.47
2019-01-31T10:38:40.597Z,19.43
2019-01-31T10:41:57.142Z,19.30
2019-01-31T10:45:10.547Z,20.03
2019-01-31T10:48:10.790Z,18.77
2019-01-31T10:51:08.286Z,19.50
2019-01-31T10:54:06.474Z,18.27
2019-01-31T10:57:15.498Z,17.77
2019-01-31T11:00:33.957Z,16.13
2019-01-31T11:03:31.082Z,17.67
2019-01-31T11:06:32.818Z,19.43
2019-01-31T11:09:33.345Z,21.00
2019-01-31T11:12:28.314Z,19.20
2019-01-31T11:15:25.793Z,17.77
2019-01-31T11:18:35.093Z,16.50
2019-01-31T11:21:38.173Z,17.97
2019-01-31T11:24:42.395Z,18.93
2019-01-31T11:27:56.593Z,17.40
2019-01-31T11:30:47.859Z,19.43
2019-01-31T11:34:10.490Z,18.43
2019-01-31T11:37:35.883Z,15.90
2019-01-31T11:40:26.641Z,17.50
2019-01-31T11:43:33.881Z,14.93
2019-01-31T11:46:32.893Z,14.27
2019-01-31T11:49:17.097Z,14.33
2019-01-31T11:52:38.586Z,14.00
2019-01-31T11:55:25.806Z,13.60
2019-01-31T11:58:41.111Z,14.27
2019-01-31T12:01:10.496Z,16.97
2019-01-31T12:03:39.656Z,15.70
2019-01-31T12:06:08.938Z,16.77
2019-01-31T12:08:38.071Z,16.93
2019-01-31T12:11:07.177Z,20.10
2019-01-31T12:13:36.312Z,19.83
2019-01-31T12:16:05.987Z,17.27
2019-01-31T12:18:35.073Z,19.03
2019-01-31T12:21:04.214Z,22.27
2019-01-31T12:23:33.337Z,19.23
2019-01-31T12:26:02.457Z,15.40
2019-01-31T12:28:31.573Z,17.83
2019-01-31T12:31:00.794Z,21.97
2019-01-31T12:33:31.017Z,21.53
2019-01-31T12:36:00.281Z,23.80
2019-01-31T12:38:36.434Z,21.73
2019-01-31T12:41:00.213Z,23.17
2019-01-31T12:43:35.212Z,25.37
2019-01-31T12:46:00.335Z,27.47
2019-01-31T12:48:29.553Z,25.17
2019-01-31T12:50:58.738Z,22.43
2019-01-31T12:53:28.222Z,24.60
2019-01-31T12:55:57.268Z,23.50
2019-01-31T12:58:33.256Z,22.67
2019-01-31T13:00:57.261Z,20.23
2019-01-31T13:03:26.421Z,20.60
2019-01-31T13:05:55.605Z,20.33
2019-01-31T13:08:24.749Z,22.30
2019-01-31T13:10:53.792Z,21.63
2019-01-31T13:13:22.893Z,20.70
2019-01-31T13:15:52.069Z,21.63
2019-01-31T13:18:21.151Z,24.63
2019-01-31T13:20:50.304Z,24.87
2019-01-31T13:23:19.713Z,36.40
2019-01-31T13:25:48.824Z,28.63
2019-01-31T13:28:18.009Z,24.73
2019-01-31T13:30:47.351Z,23.80
2019-01-31T13:33:16.448Z,21.00
2019-01-31T13:35:45.643Z,22.33
2019-01-31T13:38:14.735Z,27.80
2019-01-31T13:40:43.848Z,36.93
2019-01-31T13:43:13.044Z,28.37
2019-01-31T13:45:42.261Z,25.70
2019-01-31T13:48:13.427Z,20.97
2019-01-31T13:50:42.573Z,23.07
2019-01-31T13:53:11.876Z,25.90
2019-01-31T13:55:40.917Z,27.70
2019-01-31T13:58:10.432Z,27.67
2019-01-31T14:00:40.076Z,29.33
2019-01-31T14:03:09.254Z,31.63
2019-01-31T14:05:38.445Z,31.30
2019-01-31T14:08:08.043Z,30.53
2019-01-31T14:10:37.546Z,30.13
2019-01-31T14:13:06.824Z,31.07
2019-01-31T14:15:36.414Z,32.17
2019-01-31T14:18:05.543Z,32.83
2019-01-31T14:20:34.645Z,28.53
2019-01-31T14:23:03.799Z,29.80
2019-01-31T14:25:32.929Z,25.97
2019-01-31T14:28:02.141Z,26.60
2019-01-31T14:30:33.048Z,25.93
2019-01-31T14:33:02.666Z,23.20
2019-01-31T14:35:32.113Z,24.13
2019-01-31T14:38:01.297Z,23.67
2019-01-31T14:40:30.469Z,23.63
2019-01-31T14:42:59.556Z,25.17
2019-01-31T14:45:30.074Z,26.27
2019-01-31T14:47:59.408Z,26.77
2019-01-31T14:50:30.658Z,24.57
2019-01-31T14:52:59.774Z,26.80
2019-01-31T14:55:28.895Z,26.10
2019-01-31T14:57:58.030Z,25.37
2019-01-31T15:00:29.028Z,25.53
2019-01-31T15:02:58.145Z,24.70
2019-01-31T15:05:27.283Z,26.03
2019-01-31T15:07:56.405Z,27.87
2019-01-31T15:10:27.266Z,28.77
2019-01-31T15:12:56.603Z,28.00
2019-01-31T15:15:25.704Z,26.53
2019-01-31T15:17:54.828Z,26.50
2019-01-31T15:20:38.223Z,26.80
2019-01-31T15:23:05.789Z,22.93
2019-01-31T15:25:34.851Z,25.93
2019-01-31T15:28:04.231Z,25.80
2019-01-31T15:30:34.457Z,24.43
2019-01-31T15:33:05.894Z,22.90
2019-01-31T15:35:35.256Z,23.83
2019-01-31T15:38:04.453Z,23.77
2019-01-31T15:40:35.984Z,24.27
2019-01-31T15:43:05.165Z,22.63
2019-01-31T15:45:34.297Z,23.40
2019-01-31T15:48:03.454Z,22.50
2019-01-31T15:50:33.134Z,23.47
2019-01-31T15:53:02.255Z,23.23
2019-01-31T15:55:33.166Z,21.40
2019-01-31T15:58:02.236Z,22.67
2019-01-31T16:00:44.947Z,23.60
2019-01-31T16:03:16.423Z,19.73
2019-01-31T16:05:45.508Z,21.90
2019-01-31T16:08:15.157Z,21.70
2019-01-31T16:10:44.466Z,22.63
2019-01-31T16:13:13.508Z,22.83
2019-01-31T16:15:44.198Z,22.40
2019-01-31T16:18:13.661Z,23.00
2019-01-31T16:20:42.837Z,22.27
2019-01-31T16:23:13.113Z,22.53
2019-01-31T16:25:42.181Z,21.73
2019-01-31T16:28:11.365Z,22.57
2019-01-31T16:30:40.481Z,24.17
2019-01-31T16:33:09.533Z,23.20
2019-01-31T16:35:40.193Z,23.33
2019-01-31T16:40:40.269Z,24.03
2019-01-31T16:43:09.575Z,23.63
2019-01-31T16:45:38.836Z,23.57
2019-01-31T16:48:08.260Z,23.33
2019-01-31T16:50:37.431Z,23.87
2019-01-31T16:53:08.125Z,23.83
2019-01-31T16:55:37.522Z,25.07
2019-01-31T16:58:07.563Z,25.67
2019-01-31T17:00:36.825Z,26.27
2019-01-31T17:03:07.358Z,26.27
2019-01-31T17:05:36.653Z,26.60
2019-01-31T17:08:06.796Z,28.60
2019-01-31T17:10:36.470Z,28.60
2019-01-31T17:13:06.286Z,29.43
2019-01-31T17:15:35.602Z,27.93
2019-01-31T17:18:06.266Z,31.37
2019-01-31T17:20:40.799Z,33.23
2019-01-31T17:23:10.005Z,30.83
2019-01-31T17:25:39.196Z,31.83
2019-01-31T17:28:08.298Z,29.10
2019-01-31T17:30:37.450Z,31.07
2019-01-31T17:33:06.508Z,29.87
2019-01-31T17:35:35.787Z,29.50
2019-01-31T17:38:04.854Z,32.30
2019-01-31T17:40:36.397Z,30.67
2019-01-31T17:43:05.975Z,30.53
2019-01-31T17:45:35.180Z,30.80
2019-01-31T17:48:08.950Z,32.00
2019-01-31T17:50:41.839Z,30.57
2019-01-31T17:53:10.593Z,31.37
2019-01-31T17:55:41.543Z,29.17
2019-01-31T17:58:10.544Z,31.57
2019-01-31T18:00:50.275Z,32.40
2019-01-31T18:03:19.635Z,30.83
2019-01-31T18:05:48.730Z,31.37
2019-01-31T18:08:17.840Z,34.23
2019-01-31T18:10:46.929Z,30.33
2019-01-31T18:13:15.992Z,31.20
2019-01-31T18:15:45.042Z,33.27
2019-01-31T18:18:14.316Z,32.50
2019-01-31T18:20:43.417Z,31.47
2019-01-31T18:23:14.998Z,29.00
2019-01-31T18:25:44.341Z,33.30
2019-01-31T18:28:13.824Z,32.13
2019-01-31T18:30:42.857Z,33.23
2019-01-31T18:33:12.072Z,31.43
2019-01-31T18:35:41.285Z,32.57
2019-01-31T18:38:10.557Z,31.50
2019-01-31T18:40:39.982Z,32.70
2019-01-31T18:43:10.181Z,32.23
2019-01-31T18:45:39.414Z,31.03
2019-01-31T18:48:08.798Z,32.33
2019-01-31T18:50:40.731Z,31.47
2019-01-31T18:53:13.522Z,30.63
2019-01-31T18:55:42.578Z,30.07
2019-01-31T18:58:12.594Z,31.50
2019-01-31T19:00:47.219Z,29.77
2019-01-31T19:03:16.325Z,30.27
2019-01-31T19:05:45.412Z,29.30
2019-01-31T19:08:14.560Z,27.17
2019-01-31T19:10:44.034Z,29.07
2019-01-31T19:13:13.062Z,25.77
2019-01-31T19:15:42.466Z,29.30
2019-01-31T19:18:11.612Z,29.73
2019-01-31T19:20:40.792Z,28.53
2019-01-31T19:23:10.030Z,29.07
2019-01-31T19:25:41.536Z,27.33
2019-01-31T19:28:13.082Z,26.97
2019-01-31T19:30:41.905Z,24.80
2019-01-31T19:33:11.034Z,24.27
2019-01-31T19:35:40.135Z,26.10
2019-01-31T19:38:10.003Z,24.40
2019-01-31T19:40:41.477Z,23.93
2019-01-31T19:43:10.624Z,24.80
2019-01-31T19:45:44.837Z,24.30
2019-01-31T19:48:13.944Z,21.17
2019-01-31T19:50:43.711Z,20.90
2019-01-31T19:53:13.003Z,22.90
2019-01-31T19:55:42.106Z,22.53
2019-01-31T19:58:11.218Z,21.93
2019-01-31T20:00:40.361Z,22.80
2019-01-31T20:03:09.582Z,22.67
2019-01-31T20:05:38.758Z,23.23
2019-01-31T20:08:11.366Z,23.90
2019-01-31T20:10:40.485Z,20.47
2019-01-31T20:13:09.600Z,22.07
2019-01-31T20:15:38.853Z,20.80
2019-01-31T20:18:08.446Z,21.53
2019-01-31T20:20:37.572Z,20.00
2019-01-31T20:23:07.281Z,20.87
2019-01-31T20:25:36.329Z,20.97
2019-01-31T20:28:05.481Z,23.10
2019-01-31T20:30:34.759Z,21.33
2019-01-31T20:33:03.938Z,20.57
2019-01-31T20:35:33.176Z,20.10
2019-01-31T20:38:03.255Z,20.10
2019-01-31T20:40:37.450Z,21.47
2019-01-31T20:43:07.481Z,19.53
2019-01-31T20:45:36.741Z,20.27
2019-01-31T20:48:07.528Z,21.33
2019-01-31T20:50:37.801Z,20.30
2019-01-31T20:53:07.115Z,21.47
2019-01-31T20:55:36.319Z,20.70
2019-01-31T20:58:05.889Z,18.67
2019-01-31T21:00:43.269Z,19.30
2019-01-31T21:03:12.629Z,19.30
2019-01-31T21:05:41.876Z,19.77
2019-01-31T21:08:12.212Z,20.07
2019-01-31T21:10:41.395Z,20.07
2019-01-31T21:13:10.415Z,19.13
2019-01-31T21:15:39.609Z,20.80
2019-01-31T21:18:09.256Z,20.17
2019-01-31T21:20:38.441Z,20.87
2019-01-31T21:23:08.077Z,22.77
2019-01-31T21:25:37.357Z,21.33
2019-01-31T21:28:06.601Z,20.53
2019-01-31T21:30:43.058Z,21.80
2019-01-31T21:33:12.165Z,22.23
2019-01-31T21:35:41.278Z,21.53
2019-01-31T21:38:10.701Z,21.80
2019-01-31T21:40:40.369Z,22.17
2019-01-31T21:43:09.549Z,19.57
2019-01-31T21:45:38.912Z,19.80
2019-01-31T21:48:09.623Z,21.93
2019-01-31T21:50:38.756Z,20.63
2019-01-31T21:53:07.881Z,21.07
2019-01-31T21:55:37.003Z,20.07
2019-01-31T21:58:06.444Z,20.93
2019-01-31T22:00:35.794Z,20.17
2019-01-31T22:03:06.143Z,20.17
2019-01-31T22:05:35.249Z,19.83
2019-01-31T22:08:04.406Z,19.00
2019-01-31T22:10:33.541Z,19.10
2019-01-31T22:13:03.134Z,20.70
2019-01-31T22:15:32.996Z,19.33
2019-01-31T22:18:02.206Z,20.53
2019-01-31T22:20:31.293Z,19.33
2019-01-31T22:23:00.461Z,16.80
2019-01-31T22:25:29.583Z,16.67
2019-01-31T22:27:59.606Z,16.30
2019-01-31T22:30:34.342Z,15.93
2019-01-31T22:33:03.559Z,16.67
2019-01-31T22:35:32.734Z,15.97
2019-01-31T22:38:01.870Z,17.07
2019-01-31T22:40:30.926Z,17.63
2019-01-31T22:43:00.039Z,16.17
2019-01-31T22:45:29.435Z,17.57
2019-01-31T22:47:58.528Z,16.23
2019-01-31T22:50:27.745Z,17.53
2019-01-31T22:52:57.120Z,17.10
2019-01-31T22:55:26.438Z,15.90
2019-01-31T22:57:55.535Z,18.73
2019-01-31T23:01:21.955Z,18.37
2019-01-31T23:03:50.972Z,18.57
2019-01-31T23:06:20.092Z,17.67
2019-01-31T23:08:49.378Z,19.93
2019-01-31T23:11:18.435Z,19.20
2019-01-31T23:13:47.556Z,20.87
2019-01-31T23:16:16.777Z,19.93
2019-01-31T23:18:45.964Z,20.80
2019-01-31T23:21:15.083Z,21.70
2019-01-31T23:23:44.417Z,19.83
2019-01-31T23:26:13.570Z,18.10
2019-01-31T23:28:42.698Z,19.33
2019-01-31T23:31:11.896Z,20.17
2019-01-31T23:33:41.316Z,18.67
2019-01-31T23:36:10.431Z,20.30
2019-01-31T23:38:39.804Z,19.63
2019-01-31T23:41:08.991Z,22.67
2019-01-31T23:43:38.153Z,20.80
2019-01-31T23:46:07.213Z,19.40
2019-01-31T23:48:36.346Z,21.03
2019-01-31T23:51:05.789Z,20.90
2019-01-31T23:53:34.961Z,20.57
2019-01-31T23:56:04.072Z,21.07
2019-01-31T23:58:33.240Z,21.07
